sensor_id;sensor_type;location;lat;lon;timestamp;P1;durP1;ratioP1;P2;durP2;ratioP2
17844;SDS011;9047;53.486;10.218;2023-06-22T00:01:20;4.78;;;3.33;;
17844;SDS011;9047;53.486;10.218;2023-06-22T00:03:47;4.93;;;3.45;;
17844;SDS011;9047;53.486;10.218;2023-06-22T00:06:14;5.45;;;3.50;;
17844;SDS011;9047;53.486;10.218;2023-06-22T00:08:41;6.45;;;3.90;;
17844;SDS011;9047;53.486;10.218;2023-06-22T00:11:08;4.63;;;3.50;;
17844;SDS011;9047;53.486;10.218;2023-06-22T00:13:35;5.45;;;3.45;;
17844;SDS011;9047;53.486;10.218;2023-06-22T00:16:01;4.93;;;3.60;;
17844;SDS011;9047;53.486;10.218;2023-06-22T00:18:30;5.53;;;3.78;;
17844;SDS011;9047;53.486;10.218;2023-06-22T00:20:57;5.38;;;3.65;;
17844;SDS011;9047;53.486;10.218;2023-06-22T00:23:25;5.10;;;3.70;;
17844;SDS011;9047;53.486;10.218;2023-06-22T00:25:52;5.18;;;3.67;;
17844;SDS011;9047;53.486;10.218;2023-06-22T00:28:21;6.53;;;3.97;;
17844;SDS011;9047;53.486;10.218;2023-06-22T00:30:49;5.97;;;4.28;;
17844;SDS011;9047;53.486;10.218;2023-06-22T00:33:15;5.60;;;4.03;;
17844;SDS011;9047;53.486;10.218;2023-06-22T00:35:44;4.60;;;3.70;;
17844;SDS011;9047;53.486;10.218;2023-06-22T00:38:12;4.35;;;3.50;;
17844;SDS011;9047;53.486;10.218;2023-06-22T00:40:40;6.32;;;4.25;;
17844;SDS011;9047;53.486;10.218;2023-06-22T00:43:07;5.50;;;3.70;;
17844;SDS011;9047;53.486;10.218;2023-06-22T00:45:34;4.93;;;3.75;;
17844;SDS011;9047;53.486;10.218;2023-06-22T00:48:01;5.13;;;4.25;;
17844;SDS011;9047;53.486;10.218;2023-06-22T00:50:30;5.18;;;4.03;;
17844;SDS011;9047;53.486;10.218;2023-06-22T00:53:02;5.70;;;4.30;;
17844;SDS011;9047;53.486;10.218;2023-06-22T00:55:33;5.07;;;4.20;;
17844;SDS011;9047;53.486;10.218;2023-06-22T00:58:03;8.38;;;4.47;;
17844;SDS011;9047;53.486;10.218;2023-06-22T01:00:33;5.70;;;4.30;;
17844;SDS011;9047;53.486;10.218;2023-06-22T01:03:01;5.57;;;3.97;;
17844;SDS011;9047;53.486;10.218;2023-06-22T01:05:28;6.32;;;4.38;;
17844;SDS011;9047;53.486;10.218;2023-06-22T01:08:04;6.78;;;4.55;;
17844;SDS011;9047;53.486;10.218;2023-06-22T01:10:36;6.97;;;5.03;;
17844;SDS011;9047;53.486;10.218;2023-06-22T01:13:09;7.15;;;4.95;;
17844;SDS011;9047;53.486;10.218;2023-06-22T01:15:43;7.20;;;4.90;;
17844;SDS011;9047;53.486;10.218;2023-06-22T01:18:14;6.13;;;4.50;;
17844;SDS011;9047;53.486;10.218;2023-06-22T01:20:43;5.90;;;4.57;;
17844;SDS011;9047;53.486;10.218;2023-06-22T01:23:15;6.10;;;4.55;;
17844;SDS011;9047;53.486;10.218;2023-06-22T01:25:53;7.40;;;4.55;;
17844;SDS011;9047;53.486;10.218;2023-06-22T01:28:41;6.55;;;4.43;;
17844;SDS011;9047;53.486;10.218;2023-06-22T01:31:10;5.88;;;4.63;;
17844;SDS011;9047;53.486;10.218;2023-06-22T01:33:41;6.20;;;4.65;;
17844;SDS011;9047;53.486;10.218;2023-06-22T01:36:10;5.35;;;4.25;;
17844;SDS011;9047;53.486;10.218;2023-06-22T01:38:37;5.78;;;4.45;;
17844;SDS011;9047;53.486;10.218;2023-06-22T01:41:05;7.13;;;4.40;;
17844;SDS011;9047;53.486;10.218;2023-06-22T01:43:32;5.90;;;4.43;;
17844;SDS011;9047;53.486;10.218;2023-06-22T01:46:02;5.68;;;4.65;;
17844;SDS011;9047;53.486;10.218;2023-06-22T01:48:30;6.63;;;4.70;;
17844;SDS011;9047;53.486;10.218;2023-06-22T01:50:58;7.53;;;4.82;;
17844;SDS011;9047;53.486;10.218;2023-06-22T01:53:25;6.72;;;4.85;;
17844;SDS011;9047;53.486;10.218;2023-06-22T01:55:52;7.07;;;4.45;;
17844;SDS011;9047;53.486;10.218;2023-06-22T01:58:19;6.03;;;4.60;;
17844;SDS011;9047;53.486;10.218;2023-06-22T02:00:48;6.88;;;4.75;;
17844;SDS011;9047;53.486;10.218;2023-06-22T02:03:21;6.80;;;4.50;;
17844;SDS011;9047;53.486;10.218;2023-06-22T02:05:54;6.65;;;4.20;;
17844;SDS011;9047;53.486;10.218;2023-06-22T02:08:27;4.80;;;4.07;;
17844;SDS011;9047;53.486;10.218;2023-06-22T02:10:56;5.25;;;4.47;;
17844;SDS011;9047;53.486;10.218;2023-06-22T02:13:25;4.65;;;4.03;;
17844;SDS011;9047;53.486;10.218;2023-06-22T02:15:53;5.85;;;4.47;;
17844;SDS011;9047;53.486;10.218;2023-06-22T02:18:24;5.95;;;4.53;;
17844;SDS011;9047;53.486;10.218;2023-06-22T02:20:51;6.90;;;4.65;;
17844;SDS011;9047;53.486;10.218;2023-06-22T02:23:18;5.82;;;4.53;;
17844;SDS011;9047;53.486;10.218;2023-06-22T02:25:45;8.85;;;4.90;;
17844;SDS011;9047;53.486;10.218;2023-06-22T02:28:12;5.60;;;4.70;;
17844;SDS011;9047;53.486;10.218;2023-06-22T02:30:39;6.60;;;4.50;;
17844;SDS011;9047;53.486;10.218;2023-06-22T02:33:06;5.55;;;4.10;;
17844;SDS011;9047;53.486;10.218;2023-06-22T02:35:34;5.93;;;4.38;;
17844;SDS011;9047;53.486;10.218;2023-06-22T02:38:02;6.63;;;4.90;;
17844;SDS011;9047;53.486;10.218;2023-06-22T02:40:29;6.22;;;4.55;;
17844;SDS011;9047;53.486;10.218;2023-06-22T02:42:57;5.57;;;4.35;;
17844;SDS011;9047;53.486;10.218;2023-06-22T02:45:27;5.07;;;4.25;;
17844;SDS011;9047;53.486;10.218;2023-06-22T02:47:54;6.03;;;4.32;;
17844;SDS011;9047;53.486;10.218;2023-06-22T02:50:21;6.45;;;4.88;;
17844;SDS011;9047;53.486;10.218;2023-06-22T02:52:49;6.10;;;4.60;;
17844;SDS011;9047;53.486;10.218;2023-06-22T02:55:16;6.40;;;4.70;;
17844;SDS011;9047;53.486;10.218;2023-06-22T02:57:43;6.50;;;5.10;;
17844;SDS011;9047;53.486;10.218;2023-06-22T03:00:12;7.47;;;4.80;;
17844;SDS011;9047;53.486;10.218;2023-06-22T03:02:42;8.20;;;4.80;;
17844;SDS011;9047;53.486;10.218;2023-06-22T03:05:09;7.63;;;5.10;;
17844;SDS011;9047;53.486;10.218;2023-06-22T03:07:39;6.30;;;4.15;;
17844;SDS011;9047;53.486;10.218;2023-06-22T03:10:10;7.13;;;4.88;;
17844;SDS011;9047;53.486;10.218;2023-06-22T03:12:38;7.35;;;4.85;;
17844;SDS011;9047;53.486;10.218;2023-06-22T03:15:05;6.65;;;4.60;;
17844;SDS011;9047;53.486;10.218;2023-06-22T03:17:33;5.90;;;4.60;;
17844;SDS011;9047;53.486;10.218;2023-06-22T03:20:01;6.18;;;5.13;;
17844;SDS011;9047;53.486;10.218;2023-06-22T03:22:32;8.07;;;5.13;;
17844;SDS011;9047;53.486;10.218;2023-06-22T03:24:59;6.45;;;4.43;;
17844;SDS011;9047;53.486;10.218;2023-06-22T03:27:28;7.13;;;4.93;;
17844;SDS011;9047;53.486;10.218;2023-06-22T03:29:56;5.88;;;4.43;;
17844;SDS011;9047;53.486;10.218;2023-06-22T03:32:23;6.70;;;5.10;;
17844;SDS011;9047;53.486;10.218;2023-06-22T03:34:53;5.40;;;4.20;;
17844;SDS011;9047;53.486;10.218;2023-06-22T03:37:23;6.82;;;4.65;;
17844;SDS011;9047;53.486;10.218;2023-06-22T03:39:50;6.60;;;4.50;;
17844;SDS011;9047;53.486;10.218;2023-06-22T03:42:17;6.75;;;4.53;;
17844;SDS011;9047;53.486;10.218;2023-06-22T03:44:45;7.65;;;4.28;;
17844;SDS011;9047;53.486;10.218;2023-06-22T03:47:12;6.70;;;4.25;;
17844;SDS011;9047;53.486;10.218;2023-06-22T03:49:39;5.68;;;4.53;;
17844;SDS011;9047;53.486;10.218;2023-06-22T03:52:06;6.93;;;4.32;;
17844;SDS011;9047;53.486;10.218;2023-06-22T03:54:34;6.20;;;4.50;;
17844;SDS011;9047;53.486;10.218;2023-06-22T03:57:01;7.55;;;4.82;;
17844;SDS011;9047;53.486;10.218;2023-06-22T03:59:28;7.85;;;4.70;;
17844;SDS011;9047;53.486;10.218;2023-06-22T04:01:59;6.35;;;4.75;;
17844;SDS011;9047;53.486;10.218;2023-06-22T04:04:25;5.55;;;4.22;;
17844;SDS011;9047;53.486;10.218;2023-06-22T04:06:52;8.95;;;4.93;;
17844;SDS011;9047;53.486;10.218;2023-06-22T04:09:20;5.70;;;3.92;;
17844;SDS011;9047;53.486;10.218;2023-06-22T04:11:47;6.38;;;4.20;;
17844;SDS011;9047;53.486;10.218;2023-06-22T04:14:14;6.43;;;4.30;;
17844;SDS011;9047;53.486;10.218;2023-06-22T04:16:41;5.63;;;3.80;;
17844;SDS011;9047;53.486;10.218;2023-06-22T04:19:10;5.85;;;4.15;;
17844;SDS011;9047;53.486;10.218;2023-06-22T04:21:41;6.05;;;4.45;;
17844;SDS011;9047;53.486;10.218;2023-06-22T04:24:08;5.82;;;4.43;;
17844;SDS011;9047;53.486;10.218;2023-06-22T04:26:37;7.93;;;4.97;;
17844;SDS011;9047;53.486;10.218;2023-06-22T04:29:09;5.50;;;4.38;;
17844;SDS011;9047;53.486;10.218;2023-06-22T04:31:40;11.68;;;4.65;;
17844;SDS011;9047;53.486;10.218;2023-06-22T04:34:09;6.55;;;4.38;;
17844;SDS011;9047;53.486;10.218;2023-06-22T04:36:41;6.40;;;4.28;;
17844;SDS011;9047;53.486;10.218;2023-06-22T04:39:10;8.80;;;4.20;;
17844;SDS011;9047;53.486;10.218;2023-06-22T04:41:39;6.63;;;4.03;;
17844;SDS011;9047;53.486;10.218;2023-06-22T04:44:15;7.10;;;4.03;;
17844;SDS011;9047;53.486;10.218;2023-06-22T04:46:49;6.45;;;4.18;;
17844;SDS011;9047;53.486;10.218;2023-06-22T04:49:20;6.05;;;4.50;;
17844;SDS011;9047;53.486;10.218;2023-06-22T04:51:48;5.80;;;4.30;;
17844;SDS011;9047;53.486;10.218;2023-06-22T04:54:20;6.38;;;4.50;;
17844;SDS011;9047;53.486;10.218;2023-06-22T04:56:48;7.13;;;4.30;;
17844;SDS011;9047;53.486;10.218;2023-06-22T04:59:21;6.03;;;3.85;;
17844;SDS011;9047;53.486;10.218;2023-06-22T05:01:54;5.80;;;4.00;;
17844;SDS011;9047;53.486;10.218;2023-06-22T05:04:24;5.45;;;4.00;;
17844;SDS011;9047;53.486;10.218;2023-06-22T05:06:52;5.72;;;4.35;;
17844;SDS011;9047;53.486;10.218;2023-06-22T05:09:20;6.45;;;4.28;;
17844;SDS011;9047;53.486;10.218;2023-06-22T05:11:48;7.28;;;4.00;;
17844;SDS011;9047;53.486;10.218;2023-06-22T05:14:15;7.28;;;4.55;;
17844;SDS011;9047;53.486;10.218;2023-06-22T05:16:44;6.75;;;4.95;;
17844;SDS011;9047;53.486;10.218;2023-06-22T05:19:13;7.82;;;5.00;;
17844;SDS011;9047;53.486;10.218;2023-06-22T05:21:41;8.07;;;4.97;;
17844;SDS011;9047;53.486;10.218;2023-06-22T05:24:08;8.93;;;5.40;;
17844;SDS011;9047;53.486;10.218;2023-06-22T05:26:35;9.70;;;4.60;;
17844;SDS011;9047;53.486;10.218;2023-06-22T05:29:02;5.85;;;4.43;;
17844;SDS011;9047;53.486;10.218;2023-06-22T05:31:33;6.07;;;4.40;;
17844;SDS011;9047;53.486;10.218;2023-06-22T05:34:03;8.35;;;4.45;;
17844;SDS011;9047;53.486;10.218;2023-06-22T05:36:29;6.85;;;4.13;;
17844;SDS011;9047;53.486;10.218;2023-06-22T05:38:58;5.82;;;4.00;;
17844;SDS011;9047;53.486;10.218;2023-06-22T05:41:24;6.63;;;3.92;;
17844;SDS011;9047;53.486;10.218;2023-06-22T05:43:51;5.55;;;4.20;;
17844;SDS011;9047;53.486;10.218;2023-06-22T05:46:20;5.13;;;3.47;;
17844;SDS011;9047;53.486;10.218;2023-06-22T05:48:47;6.15;;;3.70;;
17844;SDS011;9047;53.486;10.218;2023-06-22T05:51:18;6.68;;;4.00;;
17844;SDS011;9047;53.486;10.218;2023-06-22T05:53:53;6.38;;;4.13;;
17844;SDS011;9047;53.486;10.218;2023-06-22T05:56:33;5.35;;;3.53;;
17844;SDS011;9047;53.486;10.218;2023-06-22T05:59:00;7.05;;;3.90;;
17844;SDS011;9047;53.486;10.218;2023-06-22T06:01:38;4.72;;;3.50;;
17844;SDS011;9047;53.486;10.218;2023-06-22T06:04:06;4.30;;;3.25;;
17844;SDS011;9047;53.486;10.218;2023-06-22T06:06:37;5.90;;;3.45;;
17844;SDS011;9047;53.486;10.218;2023-06-22T06:09:27;5.40;;;3.08;;
17844;SDS011;9047;53.486;10.218;2023-06-22T06:12:10;4.63;;;3.08;;
17844;SDS011;9047;53.486;10.218;2023-06-22T06:14:46;5.57;;;3.35;;
17844;SDS011;9047;53.486;10.218;2023-06-22T06:17:27;4.13;;;3.20;;
17844;SDS011;9047;53.486;10.218;2023-06-22T06:19:54;4.95;;;3.20;;
17844;SDS011;9047;53.486;10.218;2023-06-22T06:22:21;5.20;;;3.20;;
17844;SDS011;9047;53.486;10.218;2023-06-22T06:24:48;5.55;;;3.38;;
17844;SDS011;9047;53.486;10.218;2023-06-22T06:27:17;4.63;;;3.20;;
17844;SDS011;9047;53.486;10.218;2023-06-22T06:29:44;4.72;;;3.03;;
17844;SDS011;9047;53.486;10.218;2023-06-22T06:32:13;4.95;;;3.20;;
17844;SDS011;9047;53.486;10.218;2023-06-22T06:34:40;4.60;;;3.28;;
17844;SDS011;9047;53.486;10.218;2023-06-22T06:37:08;5.20;;;3.17;;
17844;SDS011;9047;53.486;10.218;2023-06-22T06:39:38;4.13;;;3.20;;
17844;SDS011;9047;53.486;10.218;2023-06-22T06:42:07;3.63;;;3.08;;
17844;SDS011;9047;53.486;10.218;2023-06-22T06:44:35;5.22;;;3.28;;
17844;SDS011;9047;53.486;10.218;2023-06-22T06:47:13;5.22;;;3.08;;
17844;SDS011;9047;53.486;10.218;2023-06-22T06:49:40;4.78;;;2.83;;
17844;SDS011;9047;53.486;10.218;2023-06-22T06:52:07;5.03;;;2.90;;
17844;SDS011;9047;53.486;10.218;2023-06-22T06:54:34;4.93;;;2.80;;
17844;SDS011;9047;53.486;10.218;2023-06-22T06:57:01;5.88;;;3.10;;
17844;SDS011;9047;53.486;10.218;2023-06-22T06:59:29;4.10;;;2.83;;
17844;SDS011;9047;53.486;10.218;2023-06-22T07:01:57;3.95;;;2.58;;
17844;SDS011;9047;53.486;10.218;2023-06-22T07:04:26;4.38;;;2.70;;
17844;SDS011;9047;53.486;10.218;2023-06-22T07:06:53;4.53;;;3.10;;
17844;SDS011;9047;53.486;10.218;2023-06-22T07:09:20;4.63;;;2.80;;
17844;SDS011;9047;53.486;10.218;2023-06-22T07:11:46;4.40;;;2.60;;
17844;SDS011;9047;53.486;10.218;2023-06-22T07:14:14;4.20;;;2.70;;
17844;SDS011;9047;53.486;10.218;2023-06-22T07:16:42;4.20;;;2.50;;
17844;SDS011;9047;53.486;10.218;2023-06-22T07:19:13;4.47;;;2.60;;
17844;SDS011;9047;53.486;10.218;2023-06-22T07:21:40;3.92;;;2.60;;
17844;SDS011;9047;53.486;10.218;2023-06-22T07:24:08;3.30;;;2.55;;
17844;SDS011;9047;53.486;10.218;2023-06-22T07:26:35;3.35;;;2.60;;
17844;SDS011;9047;53.486;10.218;2023-06-22T07:29:02;4.32;;;2.80;;
17844;SDS011;9047;53.486;10.218;2023-06-22T07:31:29;4.75;;;2.97;;
17844;SDS011;9047;53.486;10.218;2023-06-22T07:33:56;3.78;;;2.65;;
17844;SDS011;9047;53.486;10.218;2023-06-22T07:36:25;5.25;;;2.60;;
17844;SDS011;9047;53.486;10.218;2023-06-22T07:38:55;3.05;;;2.67;;
17844;SDS011;9047;53.486;10.218;2023-06-22T07:41:22;3.40;;;2.65;;
17844;SDS011;9047;53.486;10.218;2023-06-22T07:43:50;3.13;;;2.55;;
17844;SDS011;9047;53.486;10.218;2023-06-22T07:46:17;4.93;;;2.83;;
17844;SDS011;9047;53.486;10.218;2023-06-22T07:48:44;3.75;;;2.75;;
17844;SDS011;9047;53.486;10.218;2023-06-22T07:51:11;7.05;;;3.20;;
17844;SDS011;9047;53.486;10.218;2023-06-22T07:53:41;5.68;;;3.10;;
17844;SDS011;9047;53.486;10.218;2023-06-22T07:56:09;5.28;;;2.83;;
17844;SDS011;9047;53.486;10.218;2023-06-22T07:58:44;3.90;;;2.92;;
17844;SDS011;9047;53.486;10.218;2023-06-22T08:01:11;3.40;;;2.40;;
17844;SDS011;9047;53.486;10.218;2023-06-22T08:03:41;4.68;;;2.90;;
17844;SDS011;9047;53.486;10.218;2023-06-22T08:06:08;3.97;;;2.60;;
17844;SDS011;9047;53.486;10.218;2023-06-22T08:08:38;3.78;;;2.80;;
17844;SDS011;9047;53.486;10.218;2023-06-22T08:11:09;3.58;;;2.72;;
17844;SDS011;9047;53.486;10.218;2023-06-22T08:13:36;2.92;;;2.22;;
17844;SDS011;9047;53.486;10.218;2023-06-22T08:16:04;3.45;;;2.70;;
17844;SDS011;9047;53.486;10.218;2023-06-22T08:18:35;4.00;;;2.50;;
17844;SDS011;9047;53.486;10.218;2023-06-22T08:21:05;4.93;;;3.03;;
17844;SDS011;9047;53.486;10.218;2023-06-22T08:23:32;4.47;;;2.97;;
17844;SDS011;9047;53.486;10.218;2023-06-22T08:26:01;3.78;;;2.58;;
17844;SDS011;9047;53.486;10.218;2023-06-22T08:28:29;3.75;;;2.63;;
17844;SDS011;9047;53.486;10.218;2023-06-22T08:30:59;5.18;;;2.58;;
17844;SDS011;9047;53.486;10.218;2023-06-22T08:33:26;3.70;;;2.45;;
17844;SDS011;9047;53.486;10.218;2023-06-22T08:35:55;3.95;;;2.50;;
17844;SDS011;9047;53.486;10.218;2023-06-22T08:38:24;2.42;;;2.10;;
17844;SDS011;9047;53.486;10.218;2023-06-22T08:40:51;3.40;;;2.30;;
17844;SDS011;9047;53.486;10.218;2023-06-22T08:43:19;4.55;;;2.40;;
17844;SDS011;9047;53.486;10.218;2023-06-22T08:45:47;4.20;;;2.50;;
17844;SDS011;9047;53.486;10.218;2023-06-22T08:48:19;4.03;;;2.45;;
17844;SDS011;9047;53.486;10.218;2023-06-22T08:50:46;2.42;;;1.80;;
17844;SDS011;9047;53.486;10.218;2023-06-22T08:53:13;3.20;;;1.92;;
17844;SDS011;9047;53.486;10.218;2023-06-22T08:55:43;3.60;;;2.28;;
17844;SDS011;9047;53.486;10.218;2023-06-22T08:58:11;4.63;;;2.67;;
17844;SDS011;9047;53.486;10.218;2023-06-22T09:00:40;3.67;;;2.08;;
17844;SDS011;9047;53.486;10.218;2023-06-22T09:03:08;3.53;;;2.10;;
17844;SDS011;9047;53.486;10.218;2023-06-22T09:05:36;4.40;;;2.90;;
17844;SDS011;9047;53.486;10.218;2023-06-22T09:08:04;3.28;;;2.55;;
17844;SDS011;9047;53.486;10.218;2023-06-22T09:10:31;6.10;;;2.72;;
17844;SDS011;9047;53.486;10.218;2023-06-22T09:12:58;3.83;;;2.60;;
17844;SDS011;9047;53.486;10.218;2023-06-22T09:15:25;3.45;;;2.42;;
17844;SDS011;9047;53.486;10.218;2023-06-22T09:17:55;4.13;;;2.80;;
17844;SDS011;9047;53.486;10.218;2023-06-22T09:20:24;3.97;;;2.50;;
17844;SDS011;9047;53.486;10.218;2023-06-22T09:22:53;3.40;;;2.40;;
17844;SDS011;9047;53.486;10.218;2023-06-22T09:25:28;4.13;;;2.20;;
17844;SDS011;9047;53.486;10.218;2023-06-22T09:27:57;4.63;;;2.72;;
17844;SDS011;9047;53.486;10.218;2023-06-22T09:30:25;4.10;;;2.85;;
17844;SDS011;9047;53.486;10.218;2023-06-22T09:32:59;5.05;;;2.33;;
17844;SDS011;9047;53.486;10.218;2023-06-22T09:35:27;3.90;;;2.83;;
17844;SDS011;9047;53.486;10.218;2023-06-22T09:37:54;4.15;;;2.80;;
17844;SDS011;9047;53.486;10.218;2023-06-22T09:40:24;4.30;;;2.90;;
17844;SDS011;9047;53.486;10.218;2023-06-22T09:42:51;4.55;;;3.05;;
17844;SDS011;9047;53.486;10.218;2023-06-22T09:45:18;5.78;;;3.10;;
17844;SDS011;9047;53.486;10.218;2023-06-22T09:47:45;3.42;;;2.75;;
17844;SDS011;9047;53.486;10.218;2023-06-22T09:50:14;4.10;;;2.70;;
17844;SDS011;9047;53.486;10.218;2023-06-22T09:52:43;3.28;;;2.65;;
17844;SDS011;9047;53.486;10.218;2023-06-22T09:55:15;3.17;;;2.65;;
17844;SDS011;9047;53.486;10.218;2023-06-22T09:57:43;4.97;;;3.00;;
17844;SDS011;9047;53.486;10.218;2023-06-22T10:00:13;4.20;;;2.83;;
17844;SDS011;9047;53.486;10.218;2023-06-22T10:02:44;4.30;;;2.83;;
17844;SDS011;9047;53.486;10.218;2023-06-22T10:05:17;4.53;;;3.47;;
17844;SDS011;9047;53.486;10.218;2023-06-22T10:07:44;5.43;;;3.28;;
17844;SDS011;9047;53.486;10.218;2023-06-22T10:10:11;4.13;;;3.25;;
17844;SDS011;9047;53.486;10.218;2023-06-22T10:12:41;4.30;;;3.40;;
17844;SDS011;9047;53.486;10.218;2023-06-22T10:15:09;5.20;;;3.60;;
17844;SDS011;9047;53.486;10.218;2023-06-22T10:17:36;5.97;;;3.40;;
17844;SDS011;9047;53.486;10.218;2023-06-22T10:20:04;4.32;;;2.67;;
17844;SDS011;9047;53.486;10.218;2023-06-22T10:22:38;3.45;;;3.15;;
17844;SDS011;9047;53.486;10.218;2023-06-22T10:25:10;5.60;;;3.35;;
17844;SDS011;9047;53.486;10.218;2023-06-22T10:27:37;4.70;;;3.40;;
17844;SDS011;9047;53.486;10.218;2023-06-22T10:30:08;4.25;;;3.25;;
17844;SDS011;9047;53.486;10.218;2023-06-22T10:32:38;4.47;;;3.38;;
17844;SDS011;9047;53.486;10.218;2023-06-22T10:35:05;5.05;;;3.40;;
17844;SDS011;9047;53.486;10.218;2023-06-22T10:37:41;3.95;;;3.15;;
17844;SDS011;9047;53.486;10.218;2023-06-22T10:40:09;4.68;;;3.15;;
17844;SDS011;9047;53.486;10.218;2023-06-22T10:42:41;4.85;;;3.13;;
17844;SDS011;9047;53.486;10.218;2023-06-22T10:45:11;5.13;;;3.58;;
17844;SDS011;9047;53.486;10.218;2023-06-22T10:47:42;4.38;;;3.15;;
17844;SDS011;9047;53.486;10.218;2023-06-22T10:50:12;5.05;;;3.33;;
17844;SDS011;9047;53.486;10.218;2023-06-22T10:52:44;3.88;;;3.28;;
17844;SDS011;9047;53.486;10.218;2023-06-22T10:55:14;4.85;;;3.33;;
17844;SDS011;9047;53.486;10.218;2023-06-22T10:57:41;5.70;;;3.70;;
17844;SDS011;9047;53.486;10.218;2023-06-22T11:00:10;5.38;;;3.40;;
17844;SDS011;9047;53.486;10.218;2023-06-22T11:02:40;4.82;;;3.47;;
17844;SDS011;9047;53.486;10.218;2023-06-22T11:05:10;6.43;;;3.72;;
17844;SDS011;9047;53.486;10.218;2023-06-22T11:07:37;4.90;;;3.38;;
17844;SDS011;9047;53.486;10.218;2023-06-22T11:10:09;4.95;;;3.65;;
17844;SDS011;9047;53.486;10.218;2023-06-22T11:12:40;7.68;;;4.25;;
17844;SDS011;9047;53.486;10.218;2023-06-22T11:15:14;6.43;;;4.40;;
17844;SDS011;9047;53.486;10.218;2023-06-22T11:17:43;5.38;;;4.00;;
17844;SDS011;9047;53.486;10.218;2023-06-22T11:20:11;5.30;;;4.22;;
17844;SDS011;9047;53.486;10.218;2023-06-22T11:22:38;4.82;;;4.20;;
17844;SDS011;9047;53.486;10.218;2023-06-22T11:25:06;6.05;;;4.40;;
17844;SDS011;9047;53.486;10.218;2023-06-22T11:27:38;6.82;;;3.95;;
17844;SDS011;9047;53.486;10.218;2023-06-22T11:30:08;6.38;;;3.88;;
17844;SDS011;9047;53.486;10.218;2023-06-22T11:39:39;5.55;;;4.03;;
17844;SDS011;9047;53.486;10.218;2023-06-22T11:45:17;4.57;;;3.78;;
17844;SDS011;9047;53.486;10.218;2023-06-22T11:48:12;6.57;;;4.10;;
17844;SDS011;9047;53.486;10.218;2023-06-22T11:50:39;5.03;;;4.50;;
17844;SDS011;9047;53.486;10.218;2023-06-22T11:53:06;6.10;;;4.30;;
17844;SDS011;9047;53.486;10.218;2023-06-22T11:55:33;5.88;;;4.18;;
17844;SDS011;9047;53.486;10.218;2023-06-22T11:58:01;4.65;;;3.80;;
17844;SDS011;9047;53.486;10.218;2023-06-22T12:00:28;5.28;;;4.57;;
17844;SDS011;9047;53.486;10.218;2023-06-22T12:02:55;5.68;;;4.10;;
17844;SDS011;9047;53.486;10.218;2023-06-22T12:05:22;5.47;;;4.57;;
17844;SDS011;9047;53.486;10.218;2023-06-22T12:07:49;7.00;;;4.78;;
17844;SDS011;9047;53.486;10.218;2023-06-22T12:10:16;5.22;;;4.63;;
17844;SDS011;9047;53.486;10.218;2023-06-22T12:12:43;6.25;;;4.50;;
17844;SDS011;9047;53.486;10.218;2023-06-22T12:15:12;6.50;;;4.85;;
17844;SDS011;9047;53.486;10.218;2023-06-22T12:17:38;6.88;;;5.03;;
17844;SDS011;9047;53.486;10.218;2023-06-22T12:20:06;5.00;;;4.45;;
17844;SDS011;9047;53.486;10.218;2023-06-22T12:22:34;5.25;;;4.75;;
17844;SDS011;9047;53.486;10.218;2023-06-22T12:25:02;6.57;;;4.68;;
17844;SDS011;9047;53.486;10.218;2023-06-22T12:27:30;6.47;;;4.57;;
17844;SDS011;9047;53.486;10.218;2023-06-22T12:29:56;5.13;;;4.60;;
17844;SDS011;9047;53.486;10.218;2023-06-22T12:32:26;5.50;;;4.72;;
17844;SDS011;9047;53.486;10.218;2023-06-22T12:34:52;4.88;;;4.38;;
17844;SDS011;9047;53.486;10.218;2023-06-22T12:37:19;5.32;;;4.68;;
17844;SDS011;9047;53.486;10.218;2023-06-22T12:39:46;5.95;;;4.95;;
17844;SDS011;9047;53.486;10.218;2023-06-22T12:42:14;5.72;;;5.05;;
17844;SDS011;9047;53.486;10.218;2023-06-22T12:44:42;5.95;;;4.80;;
17844;SDS011;9047;53.486;10.218;2023-06-22T12:47:09;6.18;;;4.80;;
17844;SDS011;9047;53.486;10.218;2023-06-22T12:49:38;5.93;;;5.03;;
17844;SDS011;9047;53.486;10.218;2023-06-22T12:52:08;5.32;;;4.80;;
17844;SDS011;9047;53.486;10.218;2023-06-22T12:54:36;6.05;;;4.97;;
17844;SDS011;9047;53.486;10.218;2023-06-22T12:57:06;6.13;;;4.50;;
17844;SDS011;9047;53.486;10.218;2023-06-22T12:59:33;5.82;;;5.20;;
17844;SDS011;9047;53.486;10.218;2023-06-22T13:02:01;6.30;;;5.28;;
17844;SDS011;9047;53.486;10.218;2023-06-22T13:04:28;6.35;;;5.13;;
17844;SDS011;9047;53.486;10.218;2023-06-22T13:06:57;5.80;;;5.20;;
17844;SDS011;9047;53.486;10.218;2023-06-22T13:09:24;5.95;;;4.97;;
17844;SDS011;9047;53.486;10.218;2023-06-22T13:11:51;5.53;;;4.75;;
17844;SDS011;9047;53.486;10.218;2023-06-22T13:14:18;5.75;;;4.97;;
17844;SDS011;9047;53.486;10.218;2023-06-22T13:16:46;5.65;;;4.82;;
17844;SDS011;9047;53.486;10.218;2023-06-22T13:19:13;5.97;;;5.05;;
17844;SDS011;9047;53.486;10.218;2023-06-22T13:21:40;5.38;;;4.88;;
17844;SDS011;9047;53.486;10.218;2023-06-22T13:24:09;6.20;;;4.82;;
17844;SDS011;9047;53.486;10.218;2023-06-22T13:26:36;6.53;;;4.97;;
17844;SDS011;9047;53.486;10.218;2023-06-22T13:29:04;5.28;;;4.78;;
17844;SDS011;9047;53.486;10.218;2023-06-22T13:31:31;5.72;;;5.13;;
17844;SDS011;9047;53.486;10.218;2023-06-22T13:33:59;6.07;;;5.38;;
17844;SDS011;9047;53.486;10.218;2023-06-22T13:36:26;6.18;;;4.65;;
17844;SDS011;9047;53.486;10.218;2023-06-22T13:38:55;5.05;;;4.55;;
17844;SDS011;9047;53.486;10.218;2023-06-22T13:41:25;5.50;;;4.38;;
17844;SDS011;9047;53.486;10.218;2023-06-22T13:43:54;6.95;;;5.88;;
17844;SDS011;9047;53.486;10.218;2023-06-22T13:46:22;6.82;;;4.80;;
17844;SDS011;9047;53.486;10.218;2023-06-22T13:48:49;7.10;;;4.43;;
17844;SDS011;9047;53.486;10.218;2023-06-22T13:51:16;5.47;;;4.80;;
17844;SDS011;9047;53.486;10.218;2023-06-22T13:53:43;5.13;;;4.57;;
17844;SDS011;9047;53.486;10.218;2023-06-22T13:56:10;5.28;;;4.57;;
17844;SDS011;9047;53.486;10.218;2023-06-22T13:58:39;5.70;;;4.78;;
17844;SDS011;9047;53.486;10.218;2023-06-22T14:01:08;4.82;;;4.35;;
17844;SDS011;9047;53.486;10.218;2023-06-22T14:03:35;5.55;;;4.57;;
17844;SDS011;9047;53.486;10.218;2023-06-22T14:06:04;5.30;;;4.80;;
17844;SDS011;9047;53.486;10.218;2023-06-22T14:08:32;5.10;;;4.60;;
17844;SDS011;9047;53.486;10.218;2023-06-22T14:11:01;5.78;;;4.63;;
17844;SDS011;9047;53.486;10.218;2023-06-22T14:13:28;5.32;;;4.82;;
17844;SDS011;9047;53.486;10.218;2023-06-22T14:15:57;5.35;;;4.70;;
17844;SDS011;9047;53.486;10.218;2023-06-22T14:18:24;5.93;;;4.35;;
17844;SDS011;9047;53.486;10.218;2023-06-22T14:20:52;6.03;;;4.28;;
17844;SDS011;9047;53.486;10.218;2023-06-22T14:23:19;6.00;;;4.38;;
17844;SDS011;9047;53.486;10.218;2023-06-22T14:25:46;6.70;;;4.55;;
17844;SDS011;9047;53.486;10.218;2023-06-22T14:28:13;6.93;;;4.68;;
17844;SDS011;9047;53.486;10.218;2023-06-22T14:30:41;5.18;;;4.63;;
17844;SDS011;9047;53.486;10.218;2023-06-22T14:33:09;5.10;;;4.28;;
17844;SDS011;9047;53.486;10.218;2023-06-22T14:35:36;4.68;;;4.22;;
17844;SDS011;9047;53.486;10.218;2023-06-22T14:38:03;5.93;;;4.30;;
17844;SDS011;9047;53.486;10.218;2023-06-22T14:40:30;6.97;;;4.80;;
17844;SDS011;9047;53.486;10.218;2023-06-22T14:42:57;6.00;;;4.25;;
17844;SDS011;9047;53.486;10.218;2023-06-22T14:45:24;6.72;;;4.78;;
17844;SDS011;9047;53.486;10.218;2023-06-22T14:47:51;6.20;;;4.50;;
17844;SDS011;9047;53.486;10.218;2023-06-22T14:50:19;6.75;;;4.75;;
17844;SDS011;9047;53.486;10.218;2023-06-22T14:52:46;5.10;;;4.60;;
17844;SDS011;9047;53.486;10.218;2023-06-22T14:55:13;5.85;;;4.40;;
17844;SDS011;9047;53.486;10.218;2023-06-22T14:57:40;7.05;;;4.40;;
17844;SDS011;9047;53.486;10.218;2023-06-22T15:00:07;5.85;;;4.45;;
17844;SDS011;9047;53.486;10.218;2023-06-22T15:02:35;6.00;;;4.15;;
17844;SDS011;9047;53.486;10.218;2023-06-22T15:05:02;7.28;;;4.43;;
17844;SDS011;9047;53.486;10.218;2023-06-22T15:07:30;7.35;;;4.07;;